MV Causeway Supplier — ZR2426 — position and weather

sailwx.info

Track history (hours):
 
Tides and Currents Weather Stations Pressure Air Temp Water Temp Dewpoint Dewpoint Depression Visibility Wind Speed Wind Dir Waves Ship Positions

MV Causeway Supplier

Last reported at 2015-May-05 12:33 UTC. Time now 2015-May-05 17:18 UTC.
Position S 29°54' E 031°00'.

Length 22 m; draft 2.7 m.

Type: . MMSI: 601041200.

Date/timePositionNaut miles runAvg speedWind from/ knotsBaromVisibWave heightAir tempDewpointWater temp
2015-May-05 12:33S 29°54' E 031°00'5 4.8
2015-May-05 11:34S 29°53' E 031°06'1 0.9
2015-May-05 10:28S 29°53' E 031°07'3 3.3
2015-May-05 09:33S 29°52' E 031°03'3 2.9
2015-May-05 08:33S 29°54' E 031°00'1 0.5
2015-May-05 07:33S 29°54' E 031°00'0 0.0
2015-May-05 06:33S 29°54' E 031°00'0 0.0
2015-May-05 05:31S 29°54' E 031°00'0 0.0
2015-May-04 16:15S 29°54' E 031°00'5 6.7
2015-May-04 15:34S 29°51' E 031°04'7 7.4
2015-May-04 14:33S 29°45' E 031°10'0 0.0
2015-May-04 13:34S 29°45' E 031°10'8 8.0
2015-May-04 12:33S 29°51' E 031°04'4 3.8
2015-May-04 11:26S 29°54' E 031°00'0 0.0
2015-May-04 09:29S 29°54' E 031°00'0 0.0
2015-May-03 14:34S 29°54' E 031°00'  
2015-May-01 08:33S 29°47' E 031°13'2 1.9
2015-May-01 07:33S 29°49' E 031°11'2 2.0
2015-May-01 06:33S 29°50' E 031°09'8 7.7
2015-May-01 05:33S 29°52' E 031°01'2 1.7
2015-May-01 04:27S 29°54' E 031°00'0 0.0
2015-May-01 03:33S 29°54' E 031°00'0 0.0
2015-May-01 02:24S 29°54' E 031°00'0 0.0
2015-May-01 01:23S 29°54' E 031°00'0 0.0
2015-May-01 00:28S 29°54' E 031°00'0 0.0
2015-Apr-29 03:31S 29°54' E 031°00'0 0.0
2015-Apr-29 02:30S 29°54' E 031°00'0 0.0
2015-Apr-29 01:27S 29°54' E 031°00'0 0.0
2015-Apr-29 00:32S 29°54' E 031°00'0 0.0
2015-Apr-28 23:34S 29°54' E 031°00'0 0.0
2015-Apr-28 22:34S 29°54' E 031°00'0 0.0
2015-Apr-28 21:33S 29°54' E 031°00'0 0.0
2015-Apr-28 20:31S 29°54' E 031°00'0 0.0
2015-Apr-28 19:33S 29°54' E 031°00'0 0.0
2015-Apr-28 18:33S 29°54' E 031°00'0 0.0
2015-Apr-28 14:27S 29°54' E 031°00'0 0.0
2015-Apr-28 13:26S 29°54' E 031°00'0 0.0
2015-Apr-28 10:23S 29°54' E 031°00'0 0.0
2015-Apr-27 13:22S 29°54' E 031°00'5 6.2
2015-Apr-27 12:34S 29°51' E 031°04'5 4.9
2015-Apr-27 11:33S 29°49' E 031°10'0 0.1
2015-Apr-27 10:34S 29°49' E 031°10'2 1.8
2015-Apr-27 09:34S 29°50' E 031°08'1 1.4
2015-Apr-27 08:34S 29°51' E 031°08'7 6.8
2015-Apr-27 07:32S 29°53' E 031°00'1 0.6
2015-Apr-27 05:31S 29°54' E 031°00'0 0.0
2015-Apr-27 04:22S 29°54' E 031°00'0 0.0
2015-Apr-26 10:27S 29°54' E 031°00'4 4.5
2015-Apr-26 09:33S 29°52' E 031°04'6 6.1
2015-Apr-26 08:33S 29°55' E 031°10'4 4.0
2015-Apr-26 07:33S 29°51' E 031°09'3 3.0
2015-Apr-26 06:33S 29°52' E 031°06'5 4.7
2015-Apr-26 05:23S 29°54' E 031°00'0 0.0
2015-Apr-26 04:29S 29°54' E 031°00'0 0.0
2015-Apr-26 03:33S 29°54' E 031°00'0 0.0
2015-Apr-26 02:34S 29°54' E 031°00'0 0.0
2015-Apr-26 01:33S 29°54' E 031°00'0 0.0
2015-Apr-26 00:33S 29°54' E 031°00'0 0.0
2015-Apr-25 23:33S 29°54' E 031°00'0 0.0
2015-Apr-25 22:33S 29°54' E 031°00'0 0.0
2015-Apr-25 21:34S 29°54' E 031°00'0 0.0
2015-Apr-25 20:32S 29°54' E 031°00'0 0.0
2015-Apr-25 19:33S 29°54' E 031°00'0 0.0
2015-Apr-25 18:22S 29°54' E 031°00'0 0.0
2015-Apr-25 17:31S 29°54' E 031°00'0 0.0
2015-Apr-25 16:33S 29°54' E 031°00'0 0.0
2015-Apr-25 15:33S 29°54' E 031°00'0 0.0
2015-Apr-25 14:33S 29°54' E 031°00'0 0.0
2015-Apr-25 13:32S 29°54' E 031°00'  
Track history (hours):
 
Tides and Currents Weather Stations Pressure Air Temp Water Temp Dewpoint Dewpoint Depression Visibility Wind Speed Wind Dir Waves Ship Positions

MV Causeway Supplier

Last reported at 2015-May-05 12:33 UTC. Time now 2015-May-05 17:18 UTC.
Position S 29°54' E 031°00'.

Length 22 m; draft 2.7 m.

Type: . MMSI: 601041200.

Date/timePositionNaut miles runAvg speedWind from/ knotsBaromVisibWave heightAir tempDewpointWater temp
2015-May-05 12:33S 29°54' E 031°00'5 4.8
2015-May-05 11:34S 29°53' E 031°06'1 0.9
2015-May-05 10:28S 29°53' E 031°07'3 3.3
2015-May-05 09:33S 29°52' E 031°03'3 2.9
2015-May-05 08:33S 29°54' E 031°00'1 0.5
2015-May-05 07:33S 29°54' E 031°00'0 0.0
2015-May-05 06:33S 29°54' E 031°00'0 0.0
2015-May-05 05:31S 29°54' E 031°00'0 0.0
2015-May-04 16:15S 29°54' E 031°00'5 6.7
2015-May-04 15:34S 29°51' E 031°04'7 7.4
2015-May-04 14:33S 29°45' E 031°10'0 0.0
2015-May-04 13:34S 29°45' E 031°10'8 8.0
2015-May-04 12:33S 29°51' E 031°04'4 3.8
2015-May-04 11:26S 29°54' E 031°00'0 0.0
2015-May-04 09:29S 29°54' E 031°00'0 0.0
2015-May-03 14:34S 29°54' E 031°00'  
2015-May-01 08:33S 29°47' E 031°13'2 1.9
2015-May-01 07:33S 29°49' E 031°11'2 2.0
2015-May-01 06:33S 29°50' E 031°09'8 7.7
2015-May-01 05:33S 29°52' E 031°01'2 1.7
2015-May-01 04:27S 29°54' E 031°00'0 0.0
2015-May-01 03:33S 29°54' E 031°00'0 0.0
2015-May-01 02:24S 29°54' E 031°00'0 0.0
2015-May-01 01:23S 29°54' E 031°00'0 0.0
2015-May-01 00:28S 29°54' E 031°00'0 0.0
2015-Apr-29 03:31S 29°54' E 031°00'0 0.0
2015-Apr-29 02:30S 29°54' E 031°00'0 0.0
2015-Apr-29 01:27S 29°54' E 031°00'0 0.0
2015-Apr-29 00:32S 29°54' E 031°00'0 0.0
2015-Apr-28 23:34S 29°54' E 031°00'0 0.0
2015-Apr-28 22:34S 29°54' E 031°00'0 0.0
2015-Apr-28 21:33S 29°54' E 031°00'0 0.0
2015-Apr-28 20:31S 29°54' E 031°00'0 0.0
2015-Apr-28 19:33S 29°54' E 031°00'0 0.0
2015-Apr-28 18:33S 29°54' E 031°00'0 0.0
2015-Apr-28 14:27S 29°54' E 031°00'0 0.0
2015-Apr-28 13:26S 29°54' E 031°00'0 0.0
2015-Apr-28 10:23S 29°54' E 031°00'0 0.0
2015-Apr-27 13:22S 29°54' E 031°00'5 6.2
2015-Apr-27 12:34S 29°51' E 031°04'5 4.9
2015-Apr-27 11:33S 29°49' E 031°10'0 0.1
2015-Apr-27 10:34S 29°49' E 031°10'2 1.8
2015-Apr-27 09:34S 29°50' E 031°08'1 1.4
2015-Apr-27 08:34S 29°51' E 031°08'7 6.8
2015-Apr-27 07:32S 29°53' E 031°00'1 0.6
2015-Apr-27 05:31S 29°54' E 031°00'0 0.0
2015-Apr-27 04:22S 29°54' E 031°00'0 0.0
2015-Apr-26 10:27S 29°54' E 031°00'4 4.5
2015-Apr-26 09:33S 29°52' E 031°04'6 6.1
2015-Apr-26 08:33S 29°55' E 031°10'4 4.0
2015-Apr-26 07:33S 29°51' E 031°09'3 3.0
2015-Apr-26 06:33S 29°52' E 031°06'5 4.7
2015-Apr-26 05:23S 29°54' E 031°00'0 0.0
2015-Apr-26 04:29S 29°54' E 031°00'0 0.0
2015-Apr-26 03:33S 29°54' E 031°00'0 0.0
2015-Apr-26 02:34S 29°54' E 031°00'0 0.0
2015-Apr-26 01:33S 29°54' E 031°00'0 0.0
2015-Apr-26 00:33S 29°54' E 031°00'0 0.0
2015-Apr-25 23:33S 29°54' E 031°00'0 0.0
2015-Apr-25 22:33S 29°54' E 031°00'0 0.0
2015-Apr-25 21:34S 29°54' E 031°00'0 0.0
2015-Apr-25 20:32S 29°54' E 031°00'0 0.0
2015-Apr-25 19:33S 29°54' E 031°00'0 0.0
2015-Apr-25 18:22S 29°54' E 031°00'0 0.0
2015-Apr-25 17:31S 29°54' E 031°00'0 0.0
2015-Apr-25 16:33S 29°54' E 031°00'0 0.0
2015-Apr-25 15:33S 29°54' E 031°00'0 0.0
2015-Apr-25 14:33S 29°54' E 031°00'0 0.0
2015-Apr-25 13:32S 29°54' E 031°00'  

Dump ship's entire track history